createdAt,value
2018-11-29T00:00:40.164Z,94.60
2018-11-29T00:03:10.664Z,94.80
2018-11-29T00:05:39.558Z,95.10
2018-11-29T00:08:07.696Z,95.10
2018-11-29T00:10:37.727Z,95.00
2018-11-29T00:13:06.603Z,94.80
2018-11-29T00:15:35.253Z,94.90
2018-11-29T00:18:04.238Z,94.90
2018-11-29T00:20:33.139Z,94.70
2018-11-29T00:23:01.328Z,94.70
2018-11-29T00:25:29.912Z,94.60
2018-11-29T00:27:58.286Z,94.50
2018-11-29T00:30:27.341Z,94.50
2018-11-29T00:32:56.080Z,94.40
2018-11-29T00:35:24.433Z,94.30
2018-11-29T00:37:52.822Z,94.10
2018-11-29T00:40:22.067Z,93.80
2018-11-29T00:42:50.369Z,94.00
2018-11-29T00:45:22.263Z,94.10
2018-11-29T00:47:50.803Z,94.30
2018-11-29T00:50:19.919Z,94.00
2018-11-29T00:52:49.576Z,94.00
2018-11-29T00:55:18.994Z,93.80
2018-11-29T00:57:47.854Z,93.90
2018-11-29T01:00:19.434Z,93.90
2018-11-29T01:02:47.792Z,94.20
2018-11-29T01:05:15.967Z,94.40
2018-11-29T01:07:44.119Z,94.10
2018-11-29T01:10:13.797Z,94.30
2018-11-29T01:12:42.972Z,94.10
2018-11-29T01:15:15.164Z,93.70
2018-11-29T01:17:44.184Z,93.60
2018-11-29T01:20:13.682Z,93.70
2018-11-29T01:22:42.441Z,93.30
2018-11-29T01:25:11.897Z,93.30
2018-11-29T01:27:40.555Z,93.30
2018-11-29T01:30:10.838Z,93.40
2018-11-29T01:32:39.714Z,93.40
2018-11-29T01:35:09.119Z,93.50
2018-11-29T01:37:37.779Z,93.70
2018-11-29T01:40:14.394Z,94.10
2018-11-29T01:42:43.554Z,94.30
2018-11-29T01:45:12.091Z,94.10
2018-11-29T01:47:40.394Z,93.90
2018-11-29T01:50:08.599Z,93.90
2018-11-29T01:52:36.924Z,93.70
2018-11-29T01:55:06.922Z,93.50
2018-11-29T01:57:35.796Z,93.60
2018-11-29T02:00:05.579Z,93.30
2018-11-29T02:02:33.702Z,93.40
2018-11-29T02:05:02.780Z,93.30
2018-11-29T02:07:30.986Z,93.10
2018-11-29T02:10:04.622Z,92.60
2018-11-29T02:12:33.618Z,92.60
2018-11-29T02:15:01.822Z,92.60
2018-11-29T02:17:30.661Z,92.00
2018-11-29T02:19:58.909Z,92.10
2018-11-29T02:22:27.739Z,91.90
2018-11-29T02:24:56.090Z,92.10
2018-11-29T02:27:24.334Z,91.80
2018-11-29T02:29:53.318Z,92.00
2018-11-29T02:32:21.747Z,91.80
2018-11-29T02:34:50.054Z,91.90
2018-11-29T02:37:18.265Z,91.80
2018-11-29T02:39:47.357Z,91.70
2018-11-29T02:42:16.058Z,91.50
2018-11-29T02:44:44.401Z,91.60
2018-11-29T02:47:12.599Z,91.40
2018-11-29T02:49:40.912Z,91.50
2018-11-29T02:52:09.260Z,91.30
2018-11-29T02:54:37.921Z,91.40
2018-11-29T02:57:07.018Z,91.10
2018-11-29T02:59:35.496Z,91.30
2018-11-29T03:02:04.537Z,91.20
2018-11-29T03:04:32.989Z,91.60
2018-11-29T03:07:01.135Z,91.50
2018-11-29T03:09:29.625Z,91.50
2018-11-29T03:11:58.295Z,91.40
2018-11-29T03:14:26.574Z,91.40
2018-11-29T03:16:54.869Z,91.50
2018-11-29T03:19:23.705Z,91.40
2018-11-29T03:21:52.046Z,91.10
2018-11-29T03:24:20.219Z,91.20
2018-11-29T03:26:48.573Z,91.20
2018-11-29T03:29:16.914Z,91.20
2018-11-29T03:31:46.187Z,91.10
2018-11-29T03:34:14.663Z,91.40
2018-11-29T03:36:42.920Z,91.50
2018-11-29T03:39:11.732Z,91.60
2018-11-29T03:41:39.861Z,91.50
2018-11-29T03:44:08.075Z,91.40
2018-11-29T03:46:36.337Z,91.70
2018-11-29T03:49:17.207Z,92.00
2018-11-29T03:51:45.387Z,92.50
2018-11-29T03:54:14.239Z,93.40
2018-11-29T03:56:42.616Z,93.50
2018-11-29T03:59:11.433Z,93.20
2018-11-29T04:01:39.623Z,93.00
2018-11-29T04:04:07.905Z,92.80
2018-11-29T04:06:36.410Z,92.60
2018-11-29T04:09:08.794Z,92.60
2018-11-29T04:11:37.656Z,92.60
2018-11-29T04:14:06.123Z,92.40
2018-11-29T04:16:34.385Z,91.90
2018-11-29T04:19:03.358Z,91.80
2018-11-29T04:21:31.632Z,91.70
2018-11-29T04:23:59.771Z,91.60
2018-11-29T04:26:28.302Z,91.80
2018-11-29T04:28:56.502Z,91.70
2018-11-29T04:31:24.786Z,91.70
2018-11-29T04:33:53.137Z,91.20
2018-11-29T04:36:21.625Z,91.30
2018-11-29T04:38:49.843Z,91.20
2018-11-29T04:41:18.386Z,91.00
2018-11-29T04:43:46.936Z,90.70
2018-11-29T04:46:48.604Z,90.30
2018-11-29T04:49:17.214Z,90.60
2018-11-29T04:51:45.457Z,90.90
2018-11-29T04:54:13.712Z,91.10
2018-11-29T04:56:41.927Z,90.90
2018-11-29T04:59:10.406Z,90.60
2018-11-29T05:01:38.778Z,90.10
2018-11-29T05:04:07.228Z,90.00
2018-11-29T05:06:35.841Z,90.00
2018-11-29T05:09:06.643Z,89.60
2018-11-29T05:11:35.267Z,89.40
2018-11-29T05:14:03.710Z,89.50
2018-11-29T05:16:32.050Z,90.10
2018-11-29T05:19:00.794Z,90.30
2018-11-29T05:21:30.035Z,90.60
2018-11-29T05:23:58.749Z,90.90
2018-11-29T05:26:27.425Z,91.10
2018-11-29T05:28:55.591Z,91.20
2018-11-29T05:31:24.242Z,91.50
2018-11-29T05:33:52.765Z,91.70
2018-11-29T05:36:20.997Z,91.80
2018-11-29T05:38:49.720Z,92.00
2018-11-29T05:41:17.989Z,92.10
2018-11-29T05:43:47.386Z,92.20
2018-11-29T05:46:15.643Z,92.40
2018-11-29T05:48:44.205Z,92.50
2018-11-29T05:51:13.154Z,92.40
2018-11-29T05:53:41.542Z,92.60
2018-11-29T05:56:09.762Z,92.60
2018-11-29T05:58:39.057Z,92.50
2018-11-29T06:01:13.235Z,92.60
2018-11-29T06:03:41.410Z,92.60
2018-11-29T06:06:10.453Z,92.70
2018-11-29T06:08:38.978Z,92.80
2018-11-29T06:11:07.716Z,93.00
2018-11-29T06:13:36.447Z,92.90
2018-11-29T06:16:04.810Z,92.90
2018-11-29T06:18:34.097Z,92.90
2018-11-29T06:21:02.392Z,93.00
2018-11-29T06:23:30.922Z,93.10
2018-11-29T06:25:59.171Z,93.10
2018-11-29T06:28:27.299Z,93.00
2018-11-29T06:30:55.594Z,92.90
2018-11-29T06:33:24.338Z,92.90
2018-11-29T06:35:52.687Z,92.90
2018-11-29T06:38:21.000Z,92.90
2018-11-29T06:40:49.154Z,93.00
2018-11-29T06:43:17.525Z,92.90
2018-11-29T06:45:46.622Z,92.80
2018-11-29T06:48:14.759Z,92.50
2018-11-29T06:50:43.062Z,92.40
2018-11-29T06:53:16.508Z,92.30
2018-11-29T06:55:44.717Z,92.00
2018-11-29T06:58:13.010Z,91.90
2018-11-29T07:00:41.354Z,91.80
2018-11-29T07:03:09.975Z,91.90
2018-11-29T07:05:38.156Z,91.90
2018-11-29T07:08:06.871Z,91.90
2018-11-29T07:10:35.829Z,91.80
2018-11-29T07:13:05.945Z,91.70
2018-11-29T07:15:34.151Z,91.60
2018-11-29T07:18:03.081Z,91.30
2018-11-29T07:20:31.512Z,91.10
2018-11-29T07:23:00.000Z,90.90
2018-11-29T07:25:28.186Z,90.50
2018-11-29T07:27:56.535Z,90.50
2018-11-29T07:30:24.989Z,90.30
2018-11-29T07:32:53.439Z,90.20
2018-11-29T07:35:22.572Z,90.10
2018-11-29T07:37:50.840Z,90.30
2018-11-29T07:40:19.636Z,90.50
2018-11-29T07:42:52.660Z,90.30
2018-11-29T07:45:21.335Z,90.40
2018-11-29T07:47:49.556Z,90.50
2018-11-29T07:50:19.917Z,90.20
2018-11-29T07:52:48.630Z,90.00
2018-11-29T07:55:20.012Z,89.80
2018-11-29T07:57:49.602Z,89.80
2018-11-29T08:00:18.341Z,89.20
2018-11-29T08:02:46.497Z,89.00
2018-11-29T08:05:15.754Z,88.80
2018-11-29T08:07:48.130Z,88.30
2018-11-29T08:10:17.281Z,88.20
2018-11-29T08:12:45.952Z,87.70
2018-11-29T08:15:15.568Z,87.40
2018-11-29T08:17:46.476Z,87.40
2018-11-29T08:20:19.656Z,87.40
2018-11-29T08:22:47.935Z,87.50
2018-11-29T08:25:17.916Z,87.50
2018-11-29T08:27:49.919Z,86.80
2018-11-29T08:30:20.317Z,87.00
2018-11-29T08:32:52.024Z,87.60
2018-11-29T08:35:21.970Z,87.70
2018-11-29T08:37:51.882Z,87.90
2018-11-29T08:40:21.406Z,87.50
2018-11-29T08:42:51.636Z,88.20
2018-11-29T08:45:20.497Z,88.20
2018-11-29T08:47:48.625Z,88.50
2018-11-29T08:50:17.507Z,88.10
2018-11-29T08:52:46.734Z,87.90
2018-11-29T08:55:18.075Z,88.20
2018-11-29T08:57:48.308Z,87.60
2018-11-29T09:00:21.775Z,87.50
2018-11-29T09:02:50.010Z,87.30
2018-11-29T09:05:23.450Z,86.80
2018-11-29T09:07:55.071Z,85.90
2018-11-29T09:10:31.432Z,86.60
2018-11-29T09:12:54.815Z,85.70
2018-11-29T09:15:23.735Z,85.20
2018-11-29T09:17:53.525Z,83.80
2018-11-29T09:20:22.620Z,82.30
2018-11-29T09:22:51.334Z,81.00
2018-11-29T09:25:20.995Z,78.70
2018-11-29T09:27:49.230Z,77.80
2018-11-29T09:30:19.348Z,76.30
2018-11-29T09:32:49.354Z,75.30
2018-11-29T09:35:18.151Z,77.20
2018-11-29T09:37:46.347Z,77.40
2018-11-29T09:40:15.615Z,78.30
2018-11-29T09:42:44.028Z,79.60
2018-11-29T09:45:18.287Z,80.60
2018-11-29T09:47:47.985Z,81.80
2018-11-29T09:50:17.299Z,81.20
2018-11-29T09:52:45.545Z,80.70
2018-11-29T09:55:15.797Z,81.40
2018-11-29T09:57:44.912Z,81.10
2018-11-29T10:00:17.448Z,81.10
2018-11-29T10:02:51.849Z,80.60
2018-11-29T10:05:20.018Z,79.70
2018-11-29T10:07:48.678Z,79.10
2018-11-29T10:10:17.101Z,77.30
2018-11-29T10:12:45.235Z,75.40
2018-11-29T10:15:13.440Z,75.00
2018-11-29T10:17:41.881Z,75.50
2018-11-29T10:20:12.545Z,77.40
2018-11-29T10:22:42.690Z,76.80
2018-11-29T10:25:12.392Z,77.90
2018-11-29T10:27:41.282Z,78.80
2018-11-29T10:30:22.594Z,78.10
2018-11-29T10:32:50.830Z,78.80
2018-11-29T10:35:19.714Z,77.50
2018-11-29T10:37:47.913Z,77.90
2018-11-29T10:40:16.682Z,76.80
2018-11-29T10:42:44.967Z,77.30
2018-11-29T10:45:14.489Z,76.90
2018-11-29T10:47:43.795Z,76.80
2018-11-29T10:50:14.007Z,76.20
2018-11-29T10:52:42.870Z,77.30
2018-11-29T10:55:15.297Z,77.80
2018-11-29T10:57:43.691Z,77.70
2018-11-29T11:00:22.914Z,79.00
2018-11-29T11:02:57.202Z,78.80
2018-11-29T11:05:25.737Z,78.90
2018-11-29T11:07:55.095Z,79.20
2018-11-29T11:10:23.945Z,79.20
2018-11-29T11:12:52.638Z,79.30
2018-11-29T11:15:20.928Z,79.30
2018-11-29T11:17:49.618Z,79.40
2018-11-29T11:20:18.390Z,78.90
2018-11-29T11:22:46.843Z,78.60
2018-11-29T11:25:15.289Z,78.50
2018-11-29T11:27:43.491Z,78.10
2018-11-29T11:30:13.972Z,78.40
2018-11-29T11:32:42.846Z,78.20
2018-11-29T11:35:12.551Z,77.90
2018-11-29T11:37:40.945Z,78.60
2018-11-29T11:40:10.563Z,78.20
2018-11-29T11:42:38.678Z,77.80
2018-11-29T11:45:11.977Z,78.40
2018-11-29T11:47:40.258Z,77.50
2018-11-29T11:50:12.806Z,78.00
2018-11-29T11:52:41.695Z,78.20
2018-11-29T11:55:10.591Z,78.00
2018-11-29T11:57:39.284Z,78.30
2018-11-29T12:00:11.852Z,78.50
2018-11-29T12:02:40.499Z,78.90
2018-11-29T12:05:09.710Z,78.20
2018-11-29T12:07:38.025Z,78.40
2018-11-29T12:10:09.422Z,78.40
2018-11-29T12:12:37.779Z,78.20
2018-11-29T12:15:11.290Z,78.40
2018-11-29T12:17:39.910Z,78.70
2018-11-29T12:20:11.093Z,78.50
2018-11-29T12:22:39.766Z,78.90
2018-11-29T12:25:10.650Z,79.00
2018-11-29T12:27:39.001Z,79.70
2018-11-29T12:30:44.063Z,80.30
2018-11-29T12:33:12.384Z,79.40
2018-11-29T12:35:40.570Z,79.60
2018-11-29T12:38:09.230Z,79.50
2018-11-29T12:40:37.432Z,80.00
2018-11-29T12:43:06.271Z,80.20
2018-11-29T12:45:34.478Z,79.80
2018-11-29T12:48:04.167Z,79.80
2018-11-29T12:50:33.667Z,80.00
2018-11-29T12:53:01.856Z,80.20
2018-11-29T12:55:30.104Z,80.20
2018-11-29T12:58:05.389Z,80.40
2018-11-29T13:00:26.780Z,80.00
2018-11-29T13:02:59.000Z,79.90
2018-11-29T13:05:28.129Z,79.80
2018-11-29T13:07:56.775Z,80.20
2018-11-29T13:10:27.131Z,80.20
2018-11-29T13:12:55.654Z,80.40
2018-11-29T13:15:29.540Z,80.00
2018-11-29T13:17:59.602Z,80.20
2018-11-29T13:20:32.477Z,80.40
2018-11-29T13:22:56.299Z,80.50
2018-11-29T13:25:25.826Z,80.20
2018-11-29T13:27:54.151Z,80.40
2018-11-29T13:30:22.920Z,80.30
2018-11-29T13:32:57.142Z,80.10
2018-11-29T13:35:33.902Z,80.40
2018-11-29T13:38:03.806Z,80.70
2018-11-29T13:40:32.036Z,80.80
2018-11-29T13:43:00.269Z,81.40
2018-11-29T13:45:28.578Z,81.20
2018-11-29T13:47:57.237Z,80.60
2018-11-29T13:50:25.695Z,80.50
2018-11-29T13:52:54.075Z,80.50
2018-11-29T13:55:22.557Z,80.40
2018-11-29T13:57:50.996Z,80.90
2018-11-29T14:00:20.861Z,81.00
2018-11-29T14:02:51.593Z,81.60
2018-11-29T14:05:20.383Z,80.50
2018-11-29T14:07:48.644Z,81.60
2018-11-29T14:10:17.910Z,80.30
2018-11-29T14:12:47.345Z,81.60
2018-11-29T14:15:17.757Z,79.90
2018-11-29T14:17:46.107Z,79.80
2018-11-29T14:20:15.404Z,80.40
2018-11-29T14:22:43.761Z,79.80
2018-11-29T14:25:13.154Z,80.10
2018-11-29T14:27:42.595Z,80.90
2018-11-29T14:30:19.792Z,82.00
2018-11-29T14:32:48.375Z,82.70
2018-11-29T14:35:16.677Z,83.80
2018-11-29T14:37:45.502Z,83.70
2018-11-29T14:40:16.257Z,83.70
2018-11-29T14:42:44.468Z,83.80
2018-11-29T14:45:13.655Z,83.50
2018-11-29T14:47:42.241Z,83.20
2018-11-29T14:50:21.587Z,82.90
2018-11-29T14:52:50.360Z,82.90
2018-11-29T14:55:18.566Z,82.70
2018-11-29T14:57:46.904Z,82.50
2018-11-29T15:00:15.590Z,82.80
2018-11-29T15:02:44.522Z,82.50
2018-11-29T15:05:20.020Z,81.90
2018-11-29T15:07:48.205Z,81.80
2018-11-29T15:10:16.535Z,81.80
2018-11-29T15:12:44.926Z,81.10
2018-11-29T15:15:13.510Z,81.00
2018-11-29T15:17:42.599Z,81.90
2018-11-29T15:20:19.758Z,82.00
2018-11-29T15:22:48.958Z,81.80
2018-11-29T15:25:17.855Z,82.00
2018-11-29T15:27:46.239Z,82.30
2018-11-29T15:30:17.082Z,82.90
2018-11-29T15:32:45.513Z,83.10
2018-11-29T15:35:13.772Z,83.10
2018-11-29T15:37:41.935Z,82.70
2018-11-29T15:40:13.564Z,82.30
2018-11-29T15:42:41.722Z,82.40
2018-11-29T15:45:28.585Z,82.80
2018-11-29T15:47:56.978Z,83.00
2018-11-29T15:50:25.362Z,83.10
2018-11-29T15:52:53.867Z,83.00
2018-11-29T15:55:22.927Z,82.80
2018-11-29T15:57:52.436Z,82.80
2018-11-29T16:00:27.074Z,82.60
2018-11-29T16:02:58.710Z,82.40
2018-11-29T16:05:27.040Z,82.20
2018-11-29T16:07:55.530Z,82.40
2018-11-29T16:10:24.697Z,82.20
2018-11-29T16:12:53.188Z,82.40
2018-11-29T16:15:21.592Z,82.40
2018-11-29T16:17:51.457Z,82.40
2018-11-29T16:20:23.634Z,82.40
2018-11-29T16:22:51.925Z,82.60
2018-11-29T16:25:20.738Z,82.60
2018-11-29T16:27:49.819Z,82.50
2018-11-29T16:30:23.637Z,82.60
2018-11-29T16:32:52.255Z,82.60
2018-11-29T16:35:20.553Z,82.70
2018-11-29T16:37:48.911Z,83.00
2018-11-29T16:40:17.556Z,83.30
2018-11-29T16:42:45.782Z,83.30
2018-11-29T16:45:14.179Z,83.20
2018-11-29T16:47:42.831Z,83.30
2018-11-29T16:50:12.394Z,83.40
2018-11-29T16:52:41.031Z,83.40
2018-11-29T16:55:10.496Z,83.50
2018-11-29T16:57:40.175Z,83.30
2018-11-29T17:00:24.321Z,83.10
2018-11-29T17:02:52.770Z,82.70
2018-11-29T17:05:22.179Z,82.60
2018-11-29T17:07:50.697Z,82.80
2018-11-29T17:10:20.262Z,82.80
2018-11-29T17:12:50.380Z,82.70
2018-11-29T17:15:18.965Z,82.70
2018-11-29T17:17:47.215Z,82.80
2018-11-29T17:20:18.014Z,82.70
2018-11-29T17:22:46.371Z,82.50
2018-11-29T17:25:14.585Z,82.40
2018-11-29T17:27:42.827Z,81.90
2018-11-29T17:30:14.838Z,82.00
2018-11-29T17:32:44.227Z,82.00
2018-11-29T17:35:12.717Z,82.00
2018-11-29T17:37:41.290Z,82.10
2018-11-29T17:40:11.155Z,82.10
2018-11-29T17:44:04.006Z,82.30
2018-11-29T17:46:32.197Z,82.20
2018-11-29T17:49:00.402Z,82.10
2018-11-29T17:51:28.802Z,82.40
2018-11-29T17:53:57.494Z,82.30
2018-11-29T17:56:26.362Z,82.00
2018-11-29T17:58:58.633Z,82.10
2018-11-29T18:01:27.212Z,82.20
2018-11-29T18:03:55.682Z,82.40
2018-11-29T18:06:23.917Z,82.30
2018-11-29T18:08:52.142Z,82.40
2018-11-29T18:11:21.749Z,82.50
2018-11-29T18:13:49.523Z,82.60
2018-11-29T18:16:17.953Z,82.70
2018-11-29T18:18:47.541Z,83.00
2018-11-29T18:21:15.774Z,83.50
2018-11-29T18:23:46.983Z,84.10
2018-11-29T18:26:12.396Z,84.20
2018-11-29T18:28:40.526Z,84.10
2018-11-29T18:31:09.007Z,84.00
2018-11-29T18:33:37.478Z,84.10
2018-11-29T18:36:06.171Z,84.30
2018-11-29T18:38:34.481Z,84.60
2018-11-29T18:41:02.723Z,84.30
2018-11-29T18:43:30.965Z,84.20
2018-11-29T18:45:59.250Z,84.40
2018-11-29T18:48:27.430Z,84.50
2018-11-29T18:50:55.896Z,84.40
2018-11-29T18:53:26.416Z,84.20
2018-11-29T18:56:00.376Z,83.60
2018-11-29T18:58:23.755Z,83.40
2018-11-29T19:00:53.514Z,83.50
2018-11-29T19:03:21.768Z,83.90
2018-11-29T19:05:50.483Z,84.00
2018-11-29T19:08:19.153Z,84.30
2018-11-29T19:10:47.346Z,85.00
2018-11-29T19:13:15.553Z,85.40
2018-11-29T19:15:44.307Z,85.70
2018-11-29T19:18:12.839Z,85.60
2018-11-29T19:20:41.247Z,85.80
2018-11-29T19:23:09.500Z,86.00
2018-11-29T19:25:38.073Z,86.20
2018-11-29T19:28:06.972Z,86.60
2018-11-29T19:30:35.484Z,86.50
2018-11-29T19:33:20.902Z,86.60
2018-11-29T19:35:50.504Z,86.80
2018-11-29T19:38:19.938Z,86.90
2018-11-29T19:40:48.218Z,87.00
2018-11-29T19:43:16.816Z,86.90
2018-11-29T19:45:45.227Z,86.70
2018-11-29T19:48:13.399Z,86.40
2018-11-29T19:50:41.696Z,86.50
2018-11-29T19:53:13.458Z,86.60
2018-11-29T19:55:41.793Z,86.70
2018-11-29T19:58:10.472Z,86.90
2018-11-29T20:00:40.099Z,87.20
2018-11-29T20:03:08.834Z,87.10
2018-11-29T20:05:37.246Z,87.10
2018-11-29T20:08:06.917Z,87.00
2018-11-29T20:10:35.793Z,87.10
2018-11-29T20:13:06.437Z,87.40
2018-11-29T20:15:37.627Z,87.50
2018-11-29T20:18:06.591Z,87.40
2018-11-29T20:20:35.510Z,87.40
2018-11-29T20:23:04.233Z,87.80
2018-11-29T20:25:32.605Z,87.80
2018-11-29T20:28:00.845Z,87.60
2018-11-29T20:30:29.278Z,87.30
2018-11-29T20:32:58.385Z,87.40
2018-11-29T20:35:27.092Z,87.30
2018-11-29T20:37:55.359Z,87.60
2018-11-29T20:40:26.115Z,87.60
2018-11-29T20:42:56.513Z,87.90
2018-11-29T20:45:28.151Z,88.30
2018-11-29T20:47:56.439Z,88.30
2018-11-29T20:50:26.212Z,88.30
2018-11-29T20:52:55.938Z,88.50
2018-11-29T20:55:26.778Z,88.50
2018-11-29T20:57:55.178Z,88.40
2018-11-29T21:00:23.922Z,88.40
2018-11-29T21:02:52.622Z,88.40
2018-11-29T21:05:21.844Z,88.60
2018-11-29T21:07:52.718Z,88.70
2018-11-29T21:10:22.918Z,88.60
2018-11-29T21:12:51.396Z,88.60
2018-11-29T21:15:19.752Z,88.60
2018-11-29T21:17:48.154Z,88.60
2018-11-29T21:20:19.284Z,88.60
2018-11-29T21:22:49.780Z,88.70
2018-11-29T21:25:19.579Z,88.80
2018-11-29T21:27:47.758Z,88.80
2018-11-29T21:30:17.133Z,88.90
2018-11-29T21:32:46.373Z,89.10
2018-11-29T21:35:17.258Z,89.00
2018-11-29T21:37:45.431Z,88.90
2018-11-29T21:40:21.985Z,89.60
2018-11-29T21:42:51.782Z,89.50
2018-11-29T21:45:20.256Z,89.70
2018-11-29T21:47:48.386Z,90.10
2018-11-29T21:50:17.737Z,89.50
2018-11-29T21:52:45.862Z,89.00
2018-11-29T21:55:14.325Z,88.90
2018-11-29T21:57:43.015Z,88.80
2018-11-29T22:00:19.948Z,88.70
2018-11-29T22:02:50.352Z,88.50
2018-11-29T22:05:18.513Z,88.60
2018-11-29T22:07:46.701Z,88.00
2018-11-29T22:10:15.054Z,87.40
2018-11-29T22:12:43.267Z,87.30
2018-11-29T22:15:12.174Z,87.40
2018-11-29T22:17:46.694Z,87.40
2018-11-29T22:20:15.585Z,87.50
2018-11-29T22:22:43.750Z,87.40
2018-11-29T22:25:12.061Z,87.00
2018-11-29T22:27:41.209Z,86.70
2018-11-29T22:30:09.999Z,86.70
2018-11-29T22:32:38.224Z,86.60
2018-11-29T22:35:08.021Z,86.30
2018-11-29T22:37:36.456Z,86.00
2018-11-29T22:40:05.434Z,86.00
2018-11-29T22:42:33.617Z,85.80
2018-11-29T22:45:02.218Z,85.70
2018-11-29T22:47:30.325Z,85.70
2018-11-29T22:49:58.647Z,85.70
2018-11-29T22:52:26.924Z,85.50
2018-11-29T22:54:55.126Z,85.30
2018-11-29T22:57:23.318Z,85.40
2018-11-29T22:59:52.053Z,85.50
2018-11-29T23:02:20.837Z,85.80
2018-11-29T23:04:49.178Z,86.00
2018-11-29T23:07:17.906Z,86.20
2018-11-29T23:09:46.542Z,86.20
2018-11-29T23:12:14.846Z,86.40
2018-11-29T23:14:43.484Z,86.70
2018-11-29T23:17:12.351Z,86.80
2018-11-29T23:19:41.358Z,86.90
2018-11-29T23:22:10.259Z,87.10
2018-11-29T23:24:38.461Z,86.90
2018-11-29T23:27:06.758Z,86.90
2018-11-29T23:29:36.266Z,87.20
2018-11-29T23:32:04.878Z,87.60
2018-11-29T23:34:33.067Z,87.60
2018-11-29T23:37:01.333Z,87.70
2018-11-29T23:39:29.557Z,87.40
2018-11-29T23:41:57.813Z,87.30
2018-11-29T23:44:26.064Z,87.30
2018-11-29T23:46:54.213Z,87.70
2018-11-29T23:49:22.688Z,88.20
2018-11-29T23:51:50.835Z,88.70
2018-11-29T23:54:19.065Z,88.80
2018-11-29T23:56:47.308Z,88.80
2018-11-29T23:59:15.828Z,89.10
